createdAt,value
2023-04-23T00:01:30.202Z,20.93
2023-04-23T00:03:33.417Z,20.94
2023-04-23T00:05:36.371Z,20.98
2023-04-23T00:07:37.895Z,21.02
2023-04-23T00:09:39.516Z,21.05
2023-04-23T00:11:40.812Z,21.09
2023-04-23T00:13:42.168Z,21.11
2023-04-23T00:15:43.499Z,21.13
2023-04-23T00:17:44.849Z,21.16
2023-04-23T00:19:46.290Z,21.15
2023-04-23T00:21:47.646Z,21.14
2023-04-23T00:23:49.255Z,21.14
2023-04-23T00:25:50.594Z,21.12
2023-04-23T00:27:51.931Z,21.09
2023-04-23T00:29:53.348Z,21.07
2023-04-23T00:31:54.734Z,21.07
2023-04-23T00:33:56.134Z,21.04
2023-04-23T00:35:57.605Z,21.05
2023-04-23T00:37:59.021Z,21.07
2023-04-23T00:40:00.368Z,21.09
2023-04-23T00:42:07.126Z,21.10
2023-04-23T00:44:08.982Z,21.10
2023-04-23T00:46:10.477Z,21.10
2023-04-23T00:48:11.947Z,21.11
2023-04-23T00:50:13.339Z,21.11
2023-04-23T00:52:14.666Z,21.10
2023-04-23T00:54:15.991Z,21.10
2023-04-23T00:56:17.801Z,21.09
2023-04-23T00:58:19.139Z,21.07
2023-04-23T01:00:20.744Z,19.32
2023-04-23T01:02:22.183Z,21.04
2023-04-23T01:04:23.733Z,21.03
2023-04-23T01:06:28.702Z,21.02
2023-04-23T01:08:30.078Z,21.04
2023-04-23T01:10:32.651Z,21.05
2023-04-23T01:12:34.012Z,21.05
2023-04-23T01:14:35.328Z,21.07
2023-04-23T01:16:38.460Z,21.06
2023-04-23T01:18:41.146Z,21.07
2023-04-23T01:20:43.752Z,21.06
2023-04-23T01:22:45.063Z,21.06
2023-04-23T01:24:46.381Z,21.04
2023-04-23T01:26:47.704Z,21.01
2023-04-23T01:28:49.003Z,21.01
2023-04-23T01:30:50.430Z,21.01
2023-04-23T01:32:51.807Z,21.03
2023-04-23T01:34:54.463Z,21.03
2023-04-23T01:36:55.882Z,21.05
2023-04-23T01:38:57.222Z,21.06
2023-04-23T01:40:58.516Z,20.16
2023-04-23T01:42:59.861Z,21.04
2023-04-23T01:45:01.158Z,21.04
2023-04-23T01:47:02.447Z,21.07
2023-04-23T01:49:03.784Z,21.05
2023-04-23T01:51:05.094Z,21.04
2023-04-23T01:53:06.428Z,21.04
2023-04-23T01:55:07.954Z,21.04
2023-04-23T01:57:09.249Z,21.07
2023-04-23T01:59:10.593Z,21.11
2023-04-23T02:01:11.913Z,21.13
2023-04-23T02:03:13.767Z,21.14
2023-04-23T02:05:15.470Z,21.16
2023-04-23T02:07:16.889Z,21.18
2023-04-23T02:09:18.253Z,21.20
2023-04-23T02:11:19.564Z,21.27
2023-04-23T02:13:20.902Z,21.36
2023-04-23T02:15:22.307Z,21.28
2023-04-23T02:17:23.844Z,21.22
2023-04-23T02:19:25.172Z,21.25
2023-04-23T02:21:27.502Z,21.24
2023-04-23T02:23:29.003Z,21.22
2023-04-23T02:25:32.061Z,21.20
2023-04-23T02:27:33.485Z,21.19
2023-04-23T02:29:34.819Z,21.19
2023-04-23T02:31:36.183Z,21.18
2023-04-23T02:33:37.487Z,21.18
2023-04-23T02:35:38.781Z,21.18
2023-04-23T02:37:40.430Z,21.18
2023-04-23T02:39:41.855Z,21.17
2023-04-23T02:41:43.161Z,21.19
2023-04-23T02:43:44.454Z,21.19
2023-04-23T02:45:45.797Z,21.19
2023-04-23T02:47:47.198Z,21.18
2023-04-23T02:49:48.507Z,21.15
2023-04-23T02:51:49.798Z,21.13
2023-04-23T02:53:51.533Z,21.13
2023-04-23T02:55:52.829Z,21.15
2023-04-23T02:57:54.148Z,21.13
2023-04-23T02:59:55.547Z,21.15
2023-04-23T03:01:56.875Z,21.15
2023-04-23T03:03:58.391Z,21.15
2023-04-23T03:05:59.806Z,21.12
2023-04-23T03:08:01.101Z,21.12
2023-04-23T03:10:02.433Z,21.10
2023-04-23T03:12:03.738Z,21.10
2023-04-23T03:14:05.154Z,21.15
2023-04-23T03:16:06.459Z,21.21
2023-04-23T03:18:08.477Z,21.20
2023-04-23T03:20:11.627Z,21.21
2023-04-23T03:22:12.979Z,21.19
2023-04-23T03:24:15.120Z,21.18
2023-04-23T03:26:16.460Z,21.14
2023-04-23T03:28:17.755Z,21.13
2023-04-23T03:30:19.055Z,21.12
2023-04-23T03:32:20.372Z,21.11
2023-04-23T03:34:21.687Z,21.11
2023-04-23T03:36:22.974Z,21.11
2023-04-23T03:38:24.390Z,21.12
2023-04-23T03:40:25.908Z,21.11
2023-04-23T03:42:27.261Z,21.10
2023-04-23T03:44:29.440Z,21.11
2023-04-23T03:46:30.881Z,21.10
2023-04-23T03:48:32.269Z,21.09
2023-04-23T03:50:38.808Z,21.09
2023-04-23T03:52:40.150Z,21.12
2023-04-23T03:54:41.602Z,21.15
2023-04-23T03:56:43.098Z,21.16
2023-04-23T03:58:44.418Z,21.18
2023-04-23T04:00:45.715Z,21.15
2023-04-23T04:02:47.150Z,21.15
2023-04-23T04:04:51.753Z,21.15
2023-04-23T04:06:53.261Z,21.13
2023-04-23T04:08:54.556Z,21.16
2023-04-23T04:10:56.066Z,21.17
2023-04-23T04:12:57.416Z,21.19
2023-04-23T04:14:58.782Z,21.18
2023-04-23T04:17:00.226Z,21.20
2023-04-23T04:19:01.588Z,21.22
2023-04-23T04:21:02.891Z,21.20
2023-04-23T04:23:04.211Z,21.20
2023-04-23T04:25:05.511Z,21.20
2023-04-23T04:27:06.846Z,21.20
2023-04-23T04:29:09.355Z,21.19
2023-04-23T04:31:10.749Z,21.19
2023-04-23T04:33:12.082Z,21.18
2023-04-23T04:35:14.457Z,21.19
2023-04-23T04:37:15.889Z,21.22
2023-04-23T04:39:18.001Z,21.22
2023-04-23T04:41:22.198Z,21.21
2023-04-23T04:43:23.525Z,21.25
2023-04-23T04:45:25.773Z,21.22
2023-04-23T04:47:27.257Z,21.21
2023-04-23T04:49:28.632Z,21.23
2023-04-23T04:51:29.959Z,21.22
2023-04-23T04:53:31.307Z,21.20
2023-04-23T04:55:32.646Z,21.20
2023-04-23T04:57:33.959Z,21.20
2023-04-23T04:59:35.260Z,21.20
2023-04-23T05:01:37.513Z,21.20
2023-04-23T05:03:39.416Z,21.20
2023-04-23T05:05:40.925Z,21.19
2023-04-23T05:07:42.241Z,21.18
2023-04-23T05:09:45.103Z,21.18
2023-04-23T05:11:46.661Z,21.18
2023-04-23T05:13:47.951Z,21.18
2023-04-23T05:15:49.297Z,21.17
2023-04-23T05:17:53.586Z,21.17
2023-04-23T05:19:55.003Z,21.16
2023-04-23T05:21:56.497Z,21.15
2023-04-23T05:23:57.850Z,21.16
2023-04-23T05:25:59.163Z,21.16
2023-04-23T05:28:00.478Z,21.15
2023-04-23T05:30:02.181Z,21.16
2023-04-23T05:32:06.413Z,21.16
2023-04-23T05:34:07.722Z,21.14
2023-04-23T05:36:09.085Z,21.13
2023-04-23T05:38:10.482Z,21.15
2023-04-23T05:40:11.783Z,21.18
2023-04-23T05:42:13.267Z,21.17
2023-04-23T05:44:14.624Z,21.16
2023-04-23T05:46:16.040Z,21.17
2023-04-23T05:48:17.405Z,21.15
2023-04-23T05:50:18.731Z,21.13
2023-04-23T05:52:20.131Z,21.12
2023-04-23T05:54:21.443Z,21.15
2023-04-23T05:56:22.755Z,21.14
2023-04-23T05:58:24.411Z,21.12
2023-04-23T06:00:25.919Z,21.11
2023-04-23T06:02:28.732Z,21.12
2023-04-23T06:04:30.455Z,21.11
2023-04-23T06:06:32.207Z,21.12
2023-04-23T06:08:33.516Z,21.15
2023-04-23T06:10:34.861Z,21.14
2023-04-23T06:12:39.147Z,21.13
2023-04-23T06:14:40.788Z,21.14
2023-04-23T06:16:42.304Z,21.15
2023-04-23T06:18:46.280Z,21.15
2023-04-23T06:20:48.828Z,21.14
2023-04-23T06:22:50.168Z,21.13
2023-04-23T06:24:51.670Z,21.12
2023-04-23T06:26:52.971Z,21.15
2023-04-23T06:28:54.259Z,21.15
2023-04-23T06:30:58.233Z,21.16
2023-04-23T06:32:59.623Z,21.15
2023-04-23T06:35:02.254Z,21.14
2023-04-23T06:37:03.938Z,21.13
2023-04-23T06:39:05.262Z,21.13
2023-04-23T06:41:06.550Z,21.14
2023-04-23T06:43:08.101Z,21.12
2023-04-23T06:45:09.510Z,21.12
2023-04-23T06:47:11.420Z,21.17
2023-04-23T06:49:12.818Z,21.18
2023-04-23T06:51:14.111Z,21.17
2023-04-23T06:53:15.671Z,21.14
2023-04-23T06:55:16.999Z,21.12
2023-04-23T06:57:18.338Z,21.10
2023-04-23T06:59:19.811Z,21.11
2023-04-23T07:01:21.206Z,21.10
2023-04-23T07:03:25.608Z,21.09
2023-04-23T07:05:27.028Z,21.11
2023-04-23T07:07:28.331Z,21.12
2023-04-23T07:09:32.313Z,21.13
2023-04-23T07:11:35.138Z,21.27
2023-04-23T07:13:36.515Z,21.39
2023-04-23T07:15:38.138Z,21.48
2023-04-23T07:17:39.523Z,21.35
2023-04-23T07:19:40.962Z,21.32
2023-04-23T07:21:42.264Z,21.32
2023-04-23T07:23:43.579Z,21.19
2023-04-23T07:25:44.877Z,21.10
2023-04-23T07:27:49.363Z,21.03
2023-04-23T07:29:50.703Z,20.96
2023-04-23T07:31:52.185Z,20.93
2023-04-23T07:33:53.570Z,20.88
2023-04-23T07:35:54.897Z,20.85
2023-04-23T07:37:57.992Z,20.83
2023-04-23T07:40:00.848Z,20.83
2023-04-23T07:42:05.657Z,20.82
2023-04-23T07:44:07.074Z,20.82
2023-04-23T07:46:08.384Z,20.83
2023-04-23T07:48:09.823Z,20.81
2023-04-23T07:50:11.164Z,20.78
2023-04-23T07:52:12.591Z,20.77
2023-04-23T07:54:13.912Z,20.28
2023-04-23T07:56:15.628Z,19.97
2023-04-23T07:58:17.298Z,20.11
2023-04-23T08:00:18.720Z,20.36
2023-04-23T08:02:23.823Z,20.83
2023-04-23T08:04:25.731Z,20.69
2023-04-23T08:06:27.224Z,20.54
2023-04-23T08:08:28.564Z,20.74
2023-04-23T08:10:29.860Z,20.83
2023-04-23T08:12:33.820Z,20.70
2023-04-23T08:14:35.157Z,20.61
2023-04-23T08:16:38.747Z,20.53
2023-04-23T08:18:40.525Z,20.67
2023-04-23T08:20:41.813Z,21.01
2023-04-23T08:22:43.111Z,21.16
2023-04-23T08:24:44.467Z,21.73
2023-04-23T08:26:46.627Z,22.12
2023-04-23T08:28:47.924Z,22.31
2023-04-23T08:30:49.247Z,22.43
2023-04-23T08:32:51.328Z,22.44
2023-04-23T08:34:52.745Z,22.11
2023-04-23T08:36:54.074Z,21.99
2023-04-23T08:39:01.586Z,22.25
2023-04-23T08:41:02.889Z,22.13
2023-04-23T08:43:04.235Z,21.71
2023-04-23T08:45:05.574Z,21.46
2023-04-23T08:47:07.120Z,21.34
2023-04-23T08:49:11.525Z,21.26
2023-04-23T08:51:12.812Z,21.21
2023-04-23T08:53:14.127Z,21.18
2023-04-23T08:55:15.992Z,21.16
2023-04-23T08:57:17.701Z,21.13
2023-04-23T08:59:20.146Z,21.10
2023-04-23T09:01:21.540Z,21.06
2023-04-23T09:03:23.210Z,21.04
2023-04-23T09:05:24.571Z,21.05
2023-04-23T09:07:26.803Z,21.07
2023-04-23T09:09:28.102Z,21.10
2023-04-23T09:11:29.653Z,21.09
2023-04-23T09:13:32.023Z,21.10
2023-04-23T09:15:35.636Z,21.10
2023-04-23T09:17:39.419Z,21.11
2023-04-23T09:19:42.253Z,21.09
2023-04-23T09:21:43.787Z,21.09
2023-04-23T09:23:45.109Z,21.08
2023-04-23T09:25:46.458Z,21.05
2023-04-23T09:27:47.795Z,21.06
2023-04-23T09:29:53.096Z,21.04
2023-04-23T09:31:54.473Z,21.01
2023-04-23T09:33:55.952Z,20.98
2023-04-23T09:35:57.260Z,20.91
2023-04-23T09:37:58.644Z,20.90
2023-04-23T09:39:59.943Z,20.90
2023-04-23T09:42:02.185Z,20.89
2023-04-23T09:44:03.532Z,20.89
2023-04-23T09:46:05.175Z,20.85
2023-04-23T09:48:06.951Z,20.83
2023-04-23T09:50:10.542Z,20.80
2023-04-23T09:52:11.876Z,20.80
2023-04-23T09:54:13.409Z,20.82
2023-04-23T09:56:14.703Z,20.84
2023-04-23T09:58:16.074Z,20.84
2023-04-23T10:00:17.642Z,20.81
2023-04-23T10:02:19.887Z,20.82
2023-04-23T10:04:21.807Z,20.81
2023-04-23T10:06:40.816Z,20.78
2023-04-23T10:08:45.253Z,20.72
2023-04-23T10:11:00.046Z,20.70
2023-04-23T10:13:07.626Z,20.74
2023-04-23T10:15:08.962Z,20.77
2023-04-23T10:17:10.576Z,20.80
2023-04-23T10:19:14.635Z,20.87
2023-04-23T10:21:16.317Z,20.91
2023-04-23T10:23:17.672Z,20.83
2023-04-23T10:25:19.517Z,20.74
2023-04-23T10:29:25.370Z,20.62
2023-04-23T10:31:26.684Z,20.56
2023-04-23T10:33:31.834Z,20.52
2023-04-23T10:35:35.075Z,20.47
2023-04-23T10:37:36.404Z,20.44
2023-04-23T10:39:38.141Z,20.40
2023-04-23T10:41:39.468Z,20.38
2023-04-23T10:43:43.548Z,20.35
2023-04-23T10:45:44.903Z,20.33
2023-04-23T10:47:46.383Z,20.32
2023-04-23T10:49:47.814Z,20.29
2023-04-23T10:53:54.038Z,20.25
2023-04-23T10:55:55.339Z,20.23
2023-04-23T10:57:59.960Z,20.22
2023-04-23T11:00:04.571Z,20.19
2023-04-23T11:02:06.001Z,20.16
2023-04-23T11:04:07.791Z,20.14
2023-04-23T11:06:09.237Z,20.13
2023-04-23T11:08:19.467Z,20.10
2023-04-23T11:10:21.539Z,20.09
2023-04-23T11:12:22.844Z,20.15
2023-04-23T11:14:24.177Z,20.26
2023-04-23T11:16:25.749Z,20.36
2023-04-23T11:18:27.135Z,20.45
2023-04-23T11:20:28.573Z,20.54
2023-04-23T11:22:29.880Z,20.63
2023-04-23T11:24:31.923Z,20.70
2023-04-23T11:26:33.216Z,20.78
2023-04-23T11:28:34.560Z,20.83
2023-04-23T11:30:35.954Z,20.88
2023-04-23T11:32:37.343Z,20.90
2023-04-23T11:34:38.670Z,20.91
2023-04-23T11:36:42.623Z,20.92
2023-04-23T11:38:43.938Z,20.92
2023-04-23T11:40:45.275Z,20.91
2023-04-23T11:42:47.379Z,20.90
2023-04-23T11:44:48.791Z,20.90
2023-04-23T11:46:50.201Z,20.87
2023-04-23T11:48:51.571Z,20.85
2023-04-23T11:50:52.868Z,20.82
2023-04-23T11:52:54.185Z,20.83
2023-04-23T11:54:55.504Z,20.82
2023-04-23T11:56:58.046Z,20.80
2023-04-23T11:58:59.966Z,20.79
2023-04-23T12:01:02.338Z,20.77
2023-04-23T12:03:03.809Z,20.76
2023-04-23T12:05:05.997Z,20.74
2023-04-23T12:07:16.033Z,20.73
2023-04-23T12:09:30.019Z,20.71
2023-04-23T12:11:34.320Z,20.71
2023-04-23T12:13:35.638Z,20.71
2023-04-23T12:15:37.007Z,20.74
2023-04-23T12:17:38.554Z,20.77
2023-04-23T12:19:43.772Z,20.84
2023-04-23T12:21:45.224Z,20.88
2023-04-23T12:23:46.553Z,20.88
2023-04-23T12:25:47.851Z,20.88
2023-04-23T12:27:51.999Z,20.89
2023-04-23T12:29:53.304Z,20.89
2023-04-23T12:31:54.644Z,20.93
2023-04-23T12:33:55.934Z,21.01
2023-04-23T12:35:57.606Z,21.03
2023-04-23T12:37:58.895Z,20.98
2023-04-23T12:40:00.297Z,20.91
2023-04-23T12:42:03.029Z,20.87
2023-04-23T12:44:04.478Z,20.83
2023-04-23T12:46:06.046Z,20.81
2023-04-23T12:48:07.420Z,20.84
2023-04-23T12:50:08.940Z,20.81
2023-04-23T12:52:12.876Z,20.77
2023-04-23T12:54:15.060Z,20.78
2023-04-23T12:56:16.410Z,20.80
2023-04-23T12:58:17.737Z,20.84
2023-04-23T13:00:19.041Z,20.83
2023-04-23T13:02:20.665Z,20.81
2023-04-23T13:04:22.050Z,20.80
2023-04-23T13:06:23.369Z,20.79
2023-04-23T13:08:24.715Z,20.82
2023-04-23T13:10:26.254Z,20.79
2023-04-23T13:12:27.555Z,20.78
2023-04-23T13:14:29.202Z,20.78
2023-04-23T13:16:30.561Z,20.77
2023-04-23T13:18:31.905Z,20.73
2023-04-23T13:20:33.211Z,20.69
2023-04-23T13:22:34.589Z,20.68
2023-04-23T13:24:36.125Z,20.71
2023-04-23T13:26:37.423Z,20.76
2023-04-23T13:28:38.763Z,20.80
2023-04-23T13:30:40.151Z,20.94
2023-04-23T13:32:41.540Z,21.09
2023-04-23T13:34:42.928Z,21.09
2023-04-23T13:36:44.234Z,21.03
2023-04-23T13:38:45.660Z,20.96
2023-04-23T13:40:46.974Z,20.92
2023-04-23T13:42:50.308Z,20.87
2023-04-23T13:44:51.708Z,20.87
2023-04-23T13:46:53.243Z,20.91
2023-04-23T13:48:54.559Z,20.95
2023-04-23T13:50:56.020Z,20.98
2023-04-23T13:52:57.351Z,20.98
2023-04-23T13:55:00.216Z,20.96
2023-04-23T13:57:02.208Z,20.94
2023-04-23T14:01:13.309Z,20.90
2023-04-23T14:03:14.704Z,21.07
2023-04-23T14:05:16.118Z,21.06
2023-04-23T14:07:20.495Z,20.83
2023-04-23T14:09:25.208Z,21.10
2023-04-23T14:11:26.568Z,20.99
2023-04-23T14:13:27.926Z,20.96
2023-04-23T14:15:29.227Z,21.21
2023-04-23T14:17:30.529Z,21.46
2023-04-23T14:19:34.628Z,22.06
2023-04-23T14:21:36.267Z,22.66
2023-04-23T14:23:40.547Z,22.83
2023-04-23T14:25:41.877Z,22.51
2023-04-23T14:27:43.163Z,22.27
2023-04-23T14:29:47.657Z,22.23
2023-04-23T14:31:48.954Z,22.22
2023-04-23T14:33:53.277Z,22.24
2023-04-23T14:35:54.638Z,22.34
2023-04-23T14:37:56.068Z,22.57
2023-04-23T14:39:57.357Z,22.25
2023-04-23T14:41:58.699Z,21.80
2023-04-23T14:44:00.056Z,22.35
2023-04-23T14:46:01.814Z,22.19
2023-04-23T14:48:05.809Z,22.16
2023-04-23T14:50:07.161Z,22.20
2023-04-23T14:52:08.518Z,22.65
2023-04-23T14:54:09.820Z,23.03
2023-04-23T14:56:11.375Z,22.92
2023-04-23T14:58:12.693Z,22.92
2023-04-23T15:00:15.323Z,22.81
2023-04-23T15:02:16.649Z,23.04
2023-04-23T15:04:21.266Z,23.34
2023-04-23T15:06:22.915Z,23.11
2023-04-23T15:08:24.372Z,23.32
2023-04-23T15:10:25.686Z,23.49
2023-04-23T15:12:27.091Z,23.46
2023-04-23T15:14:28.393Z,23.15
2023-04-23T15:16:47.552Z,23.04
2023-04-23T15:18:49.991Z,23.00
2023-04-23T15:20:54.035Z,23.20
2023-04-23T15:22:55.420Z,23.48
2023-04-23T15:24:56.719Z,23.58
2023-04-23T15:26:59.277Z,23.63
2023-04-23T15:29:00.754Z,23.54
2023-04-23T15:31:04.832Z,23.65
2023-04-23T15:33:06.143Z,23.66
2023-04-23T15:35:07.478Z,23.05
2023-04-23T15:37:09.014Z,22.47
2023-04-23T15:39:10.869Z,22.08
2023-04-23T15:41:14.987Z,21.86
2023-04-23T15:43:16.343Z,21.72
2023-04-23T15:45:18.141Z,21.60
2023-04-23T15:47:21.582Z,21.52
2023-04-23T15:49:23.427Z,21.55
2023-04-23T15:51:24.726Z,22.06
2023-04-23T15:53:26.195Z,22.24
2023-04-23T15:55:27.763Z,22.33
2023-04-23T15:57:29.116Z,22.37
2023-04-23T15:59:33.153Z,22.17
2023-04-23T16:01:34.635Z,21.79
2023-04-23T16:03:36.070Z,21.47
2023-04-23T16:05:37.583Z,21.30
2023-04-23T16:07:38.883Z,21.24
2023-04-23T16:09:40.445Z,21.18
2023-04-23T16:11:41.994Z,21.13
2023-04-23T16:13:43.329Z,21.09
2023-04-23T16:15:44.683Z,21.06
2023-04-23T16:17:49.224Z,21.01
2023-04-23T16:19:50.806Z,20.96
2023-04-23T16:21:52.148Z,20.92
2023-04-23T16:23:53.857Z,20.89
2023-04-23T16:25:56.763Z,20.89
2023-04-23T16:27:58.788Z,20.92
2023-04-23T16:30:00.151Z,20.91
2023-04-23T16:32:05.316Z,20.90
2023-04-23T16:34:06.611Z,20.88
2023-04-23T16:36:13.090Z,20.85
2023-04-23T16:38:17.127Z,20.82
2023-04-23T16:40:19.279Z,20.78
2023-04-23T16:42:21.898Z,20.75
2023-04-23T16:44:23.235Z,20.71
2023-04-23T16:46:30.977Z,20.69
2023-04-23T16:48:32.613Z,20.64
2023-04-23T16:50:33.912Z,20.60
2023-04-23T16:52:35.324Z,20.57
2023-04-23T16:54:36.781Z,20.54
2023-04-23T16:56:38.252Z,20.50
2023-04-23T16:58:39.589Z,20.48
2023-04-23T17:00:41.102Z,20.44
2023-04-23T17:02:42.868Z,20.40
2023-04-23T17:04:44.493Z,20.38
2023-04-23T17:06:46.048Z,20.35
2023-04-23T17:08:47.339Z,20.32
2023-04-23T17:10:48.668Z,20.29
2023-04-23T17:12:56.727Z,20.26
2023-04-23T17:14:58.021Z,20.25
2023-04-23T17:16:59.405Z,20.25
2023-04-23T17:19:02.284Z,20.30
2023-04-23T17:21:03.609Z,20.34
2023-04-23T17:23:05.012Z,20.78
2023-04-23T17:25:06.539Z,21.05
2023-04-23T17:27:10.761Z,21.58
2023-04-23T17:29:14.297Z,21.98
2023-04-23T17:31:16.329Z,22.14
2023-04-23T17:33:18.025Z,22.37
2023-04-23T17:35:19.351Z,22.38
2023-04-23T17:37:21.689Z,22.06
2023-04-23T17:39:23.793Z,21.63
2023-04-23T17:41:25.265Z,21.73
2023-04-23T17:43:31.822Z,21.80
2023-04-23T17:45:36.223Z,22.04
2023-04-23T17:47:37.696Z,21.79
2023-04-23T17:49:39.064Z,22.01
2023-04-23T17:51:49.664Z,21.93
2023-04-23T17:53:53.830Z,21.89
2023-04-23T17:55:59.548Z,21.89
2023-04-23T17:58:08.179Z,21.85
2023-04-23T18:00:13.668Z,21.87
2023-04-23T18:02:15.052Z,21.59
2023-04-23T18:04:17.744Z,21.54
2023-04-23T18:06:19.542Z,21.35
2023-04-23T18:08:21.459Z,21.95
2023-04-23T18:10:23.331Z,22.30
2023-04-23T18:12:25.943Z,22.12
2023-04-23T18:14:27.246Z,22.05
2023-04-23T18:16:28.661Z,21.86
2023-04-23T18:18:32.716Z,21.80
2023-04-23T18:20:38.189Z,21.85
2023-04-23T18:22:41.125Z,21.90
2023-04-23T18:24:42.528Z,21.93
2023-04-23T18:26:43.879Z,22.38
2023-04-23T18:28:45.228Z,22.84
2023-04-23T18:30:46.672Z,22.98
2023-04-23T18:32:48.265Z,23.06
2023-04-23T18:34:49.709Z,22.77
2023-04-23T18:36:53.790Z,22.61
2023-04-23T18:38:55.248Z,22.54
2023-04-23T18:40:59.123Z,22.85
2023-04-23T18:43:00.457Z,22.72
2023-04-23T18:45:06.925Z,22.72
2023-04-23T18:47:08.233Z,22.36
2023-04-23T18:49:09.605Z,22.24
2023-04-23T18:51:10.910Z,22.64
2023-04-23T18:53:12.239Z,22.55
2023-04-23T18:55:13.641Z,22.50
2023-04-23T18:57:15.005Z,22.43
2023-04-23T18:59:16.459Z,22.84
2023-04-23T19:03:27.283Z,22.56
2023-04-23T19:05:28.936Z,22.94
2023-04-23T19:07:33.260Z,22.58
2023-04-23T19:09:34.575Z,22.04
2023-04-23T19:11:38.747Z,21.79
2023-04-23T19:13:43.108Z,21.68
2023-04-23T19:15:44.446Z,21.73
2023-04-23T19:17:46.021Z,22.59
2023-04-23T19:19:50.308Z,22.55
2023-04-23T19:21:51.696Z,22.60
2023-04-23T19:23:54.125Z,22.68
2023-04-23T19:25:56.431Z,22.75
2023-04-23T19:27:57.812Z,22.81
2023-04-23T19:30:00.962Z,22.85
2023-04-23T19:32:02.297Z,22.86
2023-04-23T19:34:03.770Z,22.87
2023-04-23T19:36:05.129Z,22.91
2023-04-23T19:38:06.534Z,22.89
2023-04-23T19:40:07.857Z,22.78
2023-04-23T19:42:10.735Z,22.70
2023-04-23T19:44:12.107Z,22.72
2023-04-23T19:46:13.398Z,23.02
2023-04-23T19:48:14.843Z,22.82
2023-04-23T19:50:16.609Z,22.35
2023-04-23T19:52:17.957Z,22.02
2023-04-23T19:54:19.288Z,21.82
2023-04-23T19:56:22.890Z,21.69
2023-04-23T19:58:24.259Z,21.61
2023-04-23T20:00:25.789Z,21.54
2023-04-23T20:02:27.112Z,21.49
2023-04-23T20:04:28.645Z,21.46
2023-04-23T20:06:33.109Z,21.44
2023-04-23T20:08:42.446Z,21.44
2023-04-23T20:10:44.465Z,21.78
2023-04-23T20:12:45.808Z,22.02
2023-04-23T20:14:47.320Z,22.65
2023-04-23T20:16:48.693Z,22.38
2023-04-23T20:18:50.076Z,22.50
2023-04-23T20:20:52.996Z,22.79
2023-04-23T20:22:54.338Z,22.95
2023-04-23T20:24:55.670Z,23.01
2023-04-23T20:27:01.284Z,22.70
2023-04-23T20:29:02.600Z,22.46
2023-04-23T20:31:04.208Z,22.33
2023-04-23T20:33:08.637Z,22.31
2023-04-23T20:35:10.095Z,22.23
2023-04-23T20:37:12.380Z,21.90
2023-04-23T20:39:13.698Z,21.67
2023-04-23T20:41:15.351Z,22.10
2023-04-23T20:43:17.470Z,22.28
2023-04-23T20:45:18.808Z,22.38
2023-04-23T20:47:20.124Z,22.82
2023-04-23T20:49:22.354Z,22.67
2023-04-23T20:51:23.678Z,22.57
2023-04-23T20:53:25.068Z,22.59
2023-04-23T20:55:26.399Z,22.54
2023-04-23T20:57:27.690Z,22.52
2023-04-23T20:59:29.028Z,22.51
2023-04-23T21:01:30.477Z,22.67
2023-04-23T21:03:33.025Z,22.68
2023-04-23T21:05:34.479Z,22.66
2023-04-23T21:07:36.804Z,22.64
2023-04-23T21:09:38.117Z,22.59
2023-04-23T21:11:39.419Z,22.59
2023-04-23T21:13:40.768Z,22.55
2023-04-23T21:15:42.253Z,22.52
2023-04-23T21:17:43.676Z,22.63
2023-04-23T21:19:45.093Z,22.31
2023-04-23T21:21:46.476Z,21.93
2023-04-23T21:23:47.856Z,21.76
2023-04-23T21:25:49.168Z,21.90
2023-04-23T21:27:50.688Z,22.07
2023-04-23T21:29:52.563Z,22.22
2023-04-23T21:31:54.002Z,22.30
2023-04-23T21:33:56.860Z,22.33
2023-04-23T21:35:58.376Z,22.32
2023-04-23T21:37:59.735Z,22.47
2023-04-23T21:40:01.187Z,22.41
2023-04-23T21:42:02.521Z,22.34
2023-04-23T21:44:03.871Z,22.35
2023-04-23T21:46:05.395Z,22.47
2023-04-23T21:48:06.721Z,23.12
2023-04-23T21:50:08.377Z,22.83
2023-04-23T21:52:09.723Z,22.70
2023-04-23T21:54:11.027Z,22.68
2023-04-23T21:56:12.332Z,22.67
2023-04-23T21:58:17.805Z,22.68
2023-04-23T22:00:19.542Z,22.65
2023-04-23T22:02:21.055Z,22.63
2023-04-23T22:04:22.725Z,22.52
2023-04-23T22:06:24.238Z,22.18
2023-04-23T22:08:25.583Z,21.94
2023-04-23T22:10:27.123Z,21.76
2023-04-23T22:12:28.440Z,21.69
2023-04-23T22:14:29.759Z,22.10
2023-04-23T22:16:31.239Z,22.23
2023-04-23T22:18:32.615Z,22.30
2023-04-23T22:20:33.996Z,22.35
2023-04-23T22:22:35.306Z,22.36
2023-04-23T22:24:36.624Z,22.38
2023-04-23T22:26:37.927Z,22.39
2023-04-23T22:28:39.233Z,22.36
2023-04-23T22:30:40.690Z,22.40
2023-04-23T22:32:41.996Z,22.60
2023-04-23T22:34:43.414Z,22.53
2023-04-23T22:36:44.765Z,22.59
2023-04-23T22:38:46.068Z,22.50
2023-04-23T22:40:47.358Z,22.57
2023-04-23T22:42:48.649Z,22.57
2023-04-23T22:44:49.979Z,22.57
2023-04-23T22:46:51.278Z,22.58
2023-04-23T22:48:53.517Z,22.71
2023-04-23T22:50:54.999Z,22.87
2023-04-23T22:52:56.320Z,22.71
2023-04-23T22:54:57.695Z,22.65
2023-04-23T22:56:59.017Z,22.74
2023-04-23T22:59:00.324Z,22.63
2023-04-23T23:01:02.225Z,22.58
2023-04-23T23:03:03.588Z,22.56
2023-04-23T23:05:04.991Z,22.49
2023-04-23T23:07:06.342Z,22.52
2023-04-23T23:09:08.133Z,22.56
2023-04-23T23:11:09.424Z,21.07
2023-04-23T23:13:10.852Z,19.42
2023-04-23T23:15:12.267Z,18.81
2023-04-23T23:17:13.576Z,19.66
2023-04-23T23:19:14.865Z,20.65
2023-04-23T23:21:16.459Z,21.06
2023-04-23T23:23:17.761Z,21.22
2023-04-23T23:25:19.085Z,21.28
2023-04-23T23:27:20.504Z,21.28
2023-04-23T23:29:21.851Z,21.31
2023-04-23T23:31:26.024Z,21.34
2023-04-23T23:33:27.586Z,21.35
2023-04-23T23:35:28.922Z,21.36
2023-04-23T23:37:30.538Z,21.34
2023-04-23T23:39:31.861Z,21.33
2023-04-23T23:41:33.161Z,21.32
2023-04-23T23:43:34.629Z,21.31
2023-04-23T23:45:36.042Z,21.36
2023-04-23T23:47:37.421Z,21.37
2023-04-23T23:49:38.779Z,21.38
2023-04-23T23:51:40.120Z,21.35
2023-04-23T23:53:41.440Z,21.34
2023-04-23T23:55:42.725Z,21.34
2023-04-23T23:57:44.026Z,21.34
2023-04-23T23:59:45.594Z,21.37
